createdAt,value
2019-02-23T00:01:03.091Z,77.20
2019-02-23T00:03:32.464Z,77.00
2019-02-23T00:06:01.610Z,76.90
2019-02-23T00:08:30.748Z,77.00
2019-02-23T00:11:00.138Z,77.40
2019-02-23T00:13:29.296Z,77.20
2019-02-23T00:15:58.519Z,77.20
2019-02-23T00:18:27.788Z,77.50
2019-02-23T00:20:56.987Z,77.70
2019-02-23T00:23:26.139Z,77.90
2019-02-23T00:25:55.284Z,77.90
2019-02-23T00:28:24.455Z,77.90
2019-02-23T00:30:53.658Z,78.00
2019-02-23T00:33:23.096Z,78.00
2019-02-23T00:35:52.228Z,78.50
2019-02-23T00:38:21.391Z,78.20
2019-02-23T00:40:50.524Z,78.20
2019-02-23T00:43:19.717Z,78.00
2019-02-23T00:45:48.854Z,77.50
2019-02-23T00:48:18.086Z,78.00
2019-02-23T00:50:47.232Z,77.60
2019-02-23T00:53:16.394Z,77.30
2019-02-23T00:55:45.500Z,77.60
2019-02-23T00:58:14.621Z,77.30
2019-02-23T01:00:43.886Z,77.20
2019-02-23T01:03:13.052Z,77.30
2019-02-23T01:05:42.207Z,77.10
2019-02-23T01:08:11.495Z,76.90
2019-02-23T01:10:40.644Z,76.70
2019-02-23T01:13:09.835Z,76.50
2019-02-23T01:15:39.092Z,76.30
2019-02-23T01:18:08.354Z,76.30
2019-02-23T01:20:37.651Z,76.20
2019-02-23T01:23:06.810Z,76.40
2019-02-23T01:25:35.960Z,76.30
2019-02-23T01:28:05.216Z,76.10
2019-02-23T01:30:34.401Z,75.80
2019-02-23T01:33:03.554Z,76.00
2019-02-23T01:35:32.696Z,75.90
2019-02-23T01:38:02.019Z,75.90
2019-02-23T01:40:31.171Z,75.70
2019-02-23T01:43:00.303Z,76.00
2019-02-23T01:45:29.760Z,76.30
2019-02-23T01:47:58.897Z,76.50
2019-02-23T01:50:28.156Z,76.60
2019-02-23T01:52:57.406Z,76.50
2019-02-23T01:55:26.554Z,76.50
2019-02-23T01:57:55.750Z,76.40
2019-02-23T02:00:25.500Z,76.50
2019-02-23T02:02:55.014Z,76.40
2019-02-23T02:05:24.169Z,76.20
2019-02-23T02:07:53.808Z,76.40
2019-02-23T02:10:23.229Z,76.50
2019-02-23T02:12:52.396Z,76.30
2019-02-23T02:15:21.853Z,77.00
2019-02-23T02:17:51.001Z,77.30
2019-02-23T02:20:20.207Z,77.20
2019-02-23T02:22:49.456Z,77.00
2019-02-23T02:25:18.705Z,77.10
2019-02-23T02:27:47.856Z,77.00
2019-02-23T02:30:17.082Z,76.80
2019-02-23T02:32:46.253Z,76.70
2019-02-23T02:35:15.369Z,76.50
2019-02-23T02:37:44.753Z,76.70
2019-02-23T02:40:14.544Z,76.80
2019-02-23T02:42:43.773Z,76.40
2019-02-23T02:45:13.295Z,76.30
2019-02-23T02:47:42.466Z,76.60
2019-02-23T02:50:23.350Z,76.60
2019-02-23T02:52:42.704Z,76.50
2019-02-23T02:55:11.962Z,76.40
2019-02-23T02:57:41.123Z,76.40
2019-02-23T03:00:12.113Z,76.20
2019-02-23T03:02:41.273Z,76.20
2019-02-23T03:05:10.464Z,76.10
2019-02-23T03:07:39.758Z,76.00
2019-02-23T03:10:09.154Z,76.00
2019-02-23T03:12:38.334Z,75.80
2019-02-23T03:15:08.105Z,76.20
2019-02-23T03:17:37.243Z,75.90
2019-02-23T03:20:07.984Z,75.80
2019-02-23T03:22:37.173Z,75.80
2019-02-23T03:25:06.741Z,75.80
2019-02-23T03:27:35.895Z,75.60
2019-02-23T03:30:05.727Z,75.70
2019-02-23T03:32:34.929Z,75.50
2019-02-23T03:35:04.235Z,75.30
2019-02-23T03:37:33.408Z,75.50
2019-02-23T03:40:02.559Z,75.40
2019-02-23T03:42:31.934Z,75.30
2019-02-23T03:45:01.088Z,75.20
2019-02-23T03:47:30.247Z,75.30
2019-02-23T03:49:59.401Z,75.40
2019-02-23T03:52:28.575Z,75.60
2019-02-23T03:54:57.729Z,75.40
2019-02-23T03:57:26.859Z,75.60
2019-02-23T03:59:56.156Z,76.30
2019-02-23T04:02:25.369Z,75.40
2019-02-23T04:04:54.527Z,75.40
2019-02-23T04:07:23.688Z,75.10
2019-02-23T04:09:53.053Z,75.20
2019-02-23T04:12:22.226Z,75.10
2019-02-23T04:14:51.482Z,74.80
2019-02-23T04:17:20.686Z,74.80
2019-02-23T04:19:49.883Z,74.60
2019-02-23T04:22:19.077Z,74.70
2019-02-23T04:24:48.416Z,74.80
2019-02-23T04:27:17.663Z,74.90
2019-02-23T04:29:47.145Z,74.80
2019-02-23T04:32:16.480Z,74.90
2019-02-23T04:34:45.634Z,74.70
2019-02-23T04:37:15.070Z,74.70
2019-02-23T04:39:44.293Z,74.80
2019-02-23T04:42:13.484Z,74.90
2019-02-23T04:44:42.745Z,74.90
2019-02-23T04:47:11.940Z,75.00
2019-02-23T04:49:41.081Z,75.30
2019-02-23T04:52:10.445Z,75.20
2019-02-23T04:54:40.034Z,75.10
2019-02-23T04:57:09.216Z,74.80
2019-02-23T04:59:38.369Z,74.80
2019-02-23T05:02:07.511Z,75.30
2019-02-23T05:04:36.695Z,74.40
2019-02-23T05:07:05.853Z,74.50
2019-02-23T05:09:35.209Z,74.20
2019-02-23T05:12:04.389Z,74.10
2019-02-23T05:14:33.542Z,73.80
2019-02-23T05:17:03.014Z,73.30
2019-02-23T05:19:32.160Z,73.90
2019-02-23T05:22:01.352Z,74.50
2019-02-23T05:24:30.601Z,74.30
2019-02-23T05:26:59.864Z,73.90
2019-02-23T05:29:29.017Z,74.40
2019-02-23T05:31:58.272Z,74.40
2019-02-23T05:34:27.859Z,74.20
2019-02-23T05:36:57.299Z,74.10
2019-02-23T05:39:26.468Z,73.70
2019-02-23T05:41:55.625Z,73.50
2019-02-23T05:44:24.873Z,73.30
2019-02-23T05:46:54.155Z,73.10
2019-02-23T05:49:23.413Z,73.50
2019-02-23T05:51:52.641Z,73.50
2019-02-23T05:54:21.878Z,73.30
2019-02-23T05:56:51.030Z,73.10
2019-02-23T05:59:20.436Z,73.10
2019-02-23T06:01:49.676Z,72.90
2019-02-23T06:04:18.842Z,72.80
2019-02-23T06:06:48.036Z,73.40
2019-02-23T06:09:17.204Z,72.70
2019-02-23T06:11:46.349Z,72.60
2019-02-23T06:14:15.594Z,72.70
2019-02-23T06:16:44.730Z,72.80
2019-02-23T06:19:13.924Z,73.00
2019-02-23T06:21:52.889Z,73.40
2019-02-23T06:24:14.323Z,73.50
2019-02-23T06:26:43.466Z,73.20
2019-02-23T06:29:12.881Z,73.40
2019-02-23T06:31:42.010Z,73.60
2019-02-23T06:34:16.309Z,73.30
2019-02-23T06:36:42.123Z,73.00
2019-02-23T06:39:11.283Z,73.00
2019-02-23T06:41:40.427Z,72.70
2019-02-23T06:44:09.576Z,72.60
2019-02-23T06:46:38.732Z,72.20
2019-02-23T06:49:07.873Z,72.10
2019-02-23T06:51:37.133Z,72.10
2019-02-23T06:54:06.333Z,72.50
2019-02-23T06:56:35.497Z,72.50
2019-02-23T06:59:04.854Z,72.40
2019-02-23T07:01:34.054Z,72.50
2019-02-23T07:04:03.198Z,72.20
2019-02-23T07:06:32.353Z,72.50
2019-02-23T07:09:01.500Z,72.60
2019-02-23T07:11:30.671Z,72.90
2019-02-23T07:13:59.830Z,73.10
2019-02-23T07:16:29.006Z,73.10
2019-02-23T07:18:58.152Z,72.90
2019-02-23T07:21:28.101Z,72.00
2019-02-23T07:23:57.279Z,72.00
2019-02-23T07:26:26.547Z,71.70
2019-02-23T07:28:55.684Z,70.30
2019-02-23T07:31:24.871Z,69.60
2019-02-23T07:33:54.009Z,69.20
2019-02-23T07:36:25.491Z,69.30
2019-02-23T07:38:54.796Z,69.30
2019-02-23T07:41:24.144Z,69.30
2019-02-23T07:43:53.365Z,68.40
2019-02-23T07:46:22.645Z,67.70
2019-02-23T07:48:51.811Z,66.50
2019-02-23T07:51:21.024Z,65.10
2019-02-23T07:53:50.199Z,61.50
2019-02-23T07:56:19.388Z,54.40
2019-02-23T07:58:48.606Z,47.90
2019-02-23T08:01:17.736Z,42.20
2019-02-23T08:03:47.091Z,39.10
2019-02-23T08:06:16.357Z,36.50
2019-02-23T08:08:45.892Z,35.30
2019-02-23T08:11:15.040Z,35.90
2019-02-23T08:13:44.224Z,37.60
2019-02-23T08:16:13.405Z,40.00
2019-02-23T08:18:42.779Z,41.20
2019-02-23T08:21:12.004Z,42.10
2019-02-23T08:23:41.176Z,39.50
2019-02-23T08:26:10.321Z,35.50
2019-02-23T08:28:39.570Z,32.80
2019-02-23T08:31:08.760Z,32.10
2019-02-23T08:33:38.052Z,28.40
2019-02-23T08:36:07.259Z,26.90
2019-02-23T08:38:36.440Z,25.80
2019-02-23T08:41:05.600Z,25.80
2019-02-23T08:43:34.959Z,25.70
2019-02-23T08:46:04.237Z,24.60
2019-02-23T08:48:33.629Z,23.70
2019-02-23T08:51:02.920Z,26.10
2019-02-23T08:53:32.096Z,29.30
2019-02-23T08:56:01.260Z,31.70
2019-02-23T08:58:30.452Z,33.20
2019-02-23T09:00:59.713Z,35.70
2019-02-23T09:03:29.053Z,37.30
2019-02-23T09:05:58.240Z,38.70
2019-02-23T09:08:27.406Z,39.10
2019-02-23T09:10:56.779Z,39.60
2019-02-23T09:13:26.308Z,41.60
2019-02-23T09:15:55.894Z,41.00
2019-02-23T09:18:25.501Z,40.40
2019-02-23T09:20:54.791Z,39.20
2019-02-23T09:23:24.000Z,36.40
2019-02-23T09:25:53.268Z,34.20
2019-02-23T09:28:22.713Z,33.00
2019-02-23T09:30:51.956Z,32.50
2019-02-23T09:33:21.181Z,32.00
2019-02-23T09:35:50.370Z,32.20
2019-02-23T09:38:19.569Z,31.90
2019-02-23T09:40:49.700Z,29.90
2019-02-23T09:43:18.882Z,30.20
2019-02-23T09:45:48.157Z,29.60
2019-02-23T09:48:17.315Z,29.90
2019-02-23T09:50:46.457Z,29.00
2019-02-23T09:53:15.633Z,29.10
2019-02-23T09:55:44.788Z,28.60
2019-02-23T09:58:14.124Z,26.00
2019-02-23T10:00:43.670Z,26.30
2019-02-23T10:03:13.296Z,26.40
2019-02-23T10:05:42.491Z,26.20
2019-02-23T10:08:11.708Z,24.80
2019-02-23T10:10:40.921Z,24.60
2019-02-23T10:13:10.509Z,24.20
2019-02-23T10:15:39.896Z,24.00
2019-02-23T10:18:09.527Z,23.60
2019-02-23T10:20:38.693Z,23.30
2019-02-23T10:23:07.924Z,21.70
2019-02-23T10:25:37.173Z,21.90
2019-02-23T10:28:06.447Z,22.00
2019-02-23T10:30:35.636Z,21.70
2019-02-23T10:33:04.796Z,20.70
2019-02-23T10:35:33.949Z,20.00
2019-02-23T10:38:03.115Z,19.30
2019-02-23T10:40:32.500Z,18.70
2019-02-23T10:43:01.939Z,19.00
2019-02-23T10:45:31.115Z,18.70
2019-02-23T10:48:00.254Z,18.50
2019-02-23T10:50:29.575Z,18.00
2019-02-23T10:52:58.729Z,18.60
2019-02-23T10:55:27.915Z,16.60
2019-02-23T10:57:57.047Z,15.70
2019-02-23T11:00:26.318Z,14.70
2019-02-23T11:02:55.549Z,13.60
2019-02-23T11:05:24.696Z,12.60
2019-02-23T11:07:54.020Z,13.30
2019-02-23T11:10:23.374Z,11.80
2019-02-23T11:12:52.500Z,9.80
2019-02-23T11:15:22.164Z,8.80
2019-02-23T11:17:51.499Z,7.40
2019-02-23T11:20:21.444Z,7.10
2019-02-23T11:22:50.657Z,6.30
2019-02-23T11:25:19.865Z,7.10
2019-02-23T11:27:49.021Z,6.20
2019-02-23T11:30:18.400Z,6.10
2019-02-23T11:32:47.641Z,5.80
2019-02-23T11:35:17.658Z,4.90
2019-02-23T11:37:47.213Z,4.80
2019-02-23T11:40:16.392Z,5.50
2019-02-23T11:42:45.637Z,4.40
2019-02-23T11:45:14.845Z,4.30
2019-02-23T11:47:44.025Z,5.10
2019-02-23T11:50:13.620Z,4.80
2019-02-23T11:52:42.813Z,4.60
2019-02-23T11:55:12.032Z,3.40
2019-02-23T11:57:41.501Z,3.80
2019-02-23T12:00:11.081Z,3.50
2019-02-23T12:02:40.319Z,3.40
2019-02-23T12:05:09.878Z,3.00
2019-02-23T12:07:39.017Z,3.20
2019-02-23T12:10:10.401Z,2.50
2019-02-23T12:12:39.810Z,2.60
2019-02-23T12:15:09.297Z,1.90
2019-02-23T12:17:38.547Z,2.60
2019-02-23T12:20:08.144Z,2.30
2019-02-23T12:22:37.328Z,2.10
2019-02-23T12:25:06.484Z,1.90
2019-02-23T12:27:35.640Z,2.00
2019-02-23T12:30:05.059Z,1.40
2019-02-23T12:32:34.209Z,2.00
2019-02-23T12:35:03.371Z,1.70
2019-02-23T12:37:32.541Z,1.80
2019-02-23T12:40:01.702Z,1.60
2019-02-23T12:42:30.851Z,1.90
2019-02-23T12:44:59.997Z,1.40
2019-02-23T12:47:29.224Z,1.90
2019-02-23T12:49:58.401Z,1.60
2019-02-23T12:52:27.565Z,4.90
2019-02-23T12:54:56.774Z,3.00
2019-02-23T12:57:26.008Z,4.10
2019-02-23T12:59:55.892Z,2.40
2019-02-23T13:02:25.176Z,3.10
2019-02-23T13:04:54.351Z,2.40
2019-02-23T13:07:23.511Z,2.70
2019-02-23T13:09:54.977Z,2.90
2019-02-23T13:12:51.408Z,3.00
2019-02-23T13:15:30.294Z,2.60
2019-02-23T13:18:36.420Z,2.70
2019-02-23T13:21:19.498Z,2.50
2019-02-23T13:24:27.847Z,2.70
2019-02-23T13:27:31.009Z,2.40
2019-02-23T13:30:17.736Z,2.70
2019-02-23T13:33:40.254Z,2.60
2019-02-23T13:36:51.501Z,1.80
2019-02-23T13:39:44.169Z,1.70
2019-02-23T13:42:45.201Z,2.70
2019-02-23T13:45:54.564Z,2.20
2019-02-23T13:48:59.811Z,2.10
2019-02-23T13:52:15.962Z,2.40
2019-02-23T13:55:44.074Z,2.10
2019-02-23T13:58:50.066Z,1.90
2019-02-23T14:01:59.293Z,1.50
2019-02-23T14:05:11.947Z,1.80
2019-02-23T14:08:17.809Z,2.30
2019-02-23T14:11:07.229Z,2.20
2019-02-23T14:14:11.958Z,2.80
2019-02-23T14:17:06.324Z,2.40
2019-02-23T14:20:04.508Z,2.30
2019-02-23T14:23:25.757Z,2.50
2019-02-23T14:26:25.914Z,3.90
2019-02-23T14:29:23.669Z,5.30
2019-02-23T14:32:24.358Z,6.00
2019-02-23T14:35:49.843Z,6.80
2019-02-23T14:39:16.732Z,7.00
2019-02-23T14:42:04.953Z,8.70
2019-02-23T14:44:54.293Z,9.40
2019-02-23T14:47:49.912Z,9.60
2019-02-23T14:50:53.543Z,9.40
2019-02-23T14:54:09.578Z,9.30
2019-02-23T14:57:14.837Z,9.20
2019-02-23T15:00:16.580Z,9.00
2019-02-23T15:03:38.085Z,8.90
2019-02-23T15:06:16.219Z,8.70
2019-02-23T15:09:17.941Z,8.90
2019-02-23T15:12:11.429Z,9.10
2019-02-23T15:15:23.805Z,9.30
2019-02-23T15:18:39.288Z,10.20
2019-02-23T15:21:34.147Z,10.10
2019-02-23T15:24:29.228Z,11.30
2019-02-23T15:27:53.101Z,11.40
2019-02-23T15:31:04.666Z,10.90
2019-02-23T15:34:21.157Z,11.00
2019-02-23T15:37:07.633Z,11.00
2019-02-23T15:40:23.819Z,10.80
2019-02-23T15:43:43.210Z,10.50
2019-02-23T15:46:49.275Z,10.70
2019-02-23T15:49:31.028Z,11.40
2019-02-23T15:52:02.005Z,12.30
2019-02-23T15:54:31.421Z,12.60
2019-02-23T15:57:00.605Z,12.50
2019-02-23T15:59:29.844Z,12.60
2019-02-23T16:01:59.037Z,12.90
2019-02-23T16:04:28.430Z,13.10
2019-02-23T16:06:58.018Z,13.20
2019-02-23T16:09:27.245Z,14.60
2019-02-23T16:11:56.455Z,16.60
2019-02-23T16:14:27.394Z,17.70
2019-02-23T16:16:56.583Z,18.00
2019-02-23T16:19:25.856Z,18.30
2019-02-23T16:21:55.036Z,18.20
2019-02-23T16:24:24.264Z,18.60
2019-02-23T16:26:53.460Z,18.40
2019-02-23T16:29:22.620Z,18.40
2019-02-23T16:31:51.900Z,18.70
2019-02-23T16:34:21.037Z,18.90
2019-02-23T16:36:50.268Z,19.20
2019-02-23T16:39:19.517Z,18.80
2019-02-23T16:41:48.926Z,19.10
2019-02-23T16:44:18.404Z,19.00
2019-02-23T16:46:47.603Z,18.70
2019-02-23T16:49:16.770Z,18.80
2019-02-23T16:51:45.912Z,19.00
2019-02-23T16:54:15.404Z,18.90
2019-02-23T16:56:44.965Z,20.00
2019-02-23T16:59:14.244Z,19.80
2019-02-23T17:01:43.458Z,19.70
2019-02-23T17:04:12.942Z,20.00
2019-02-23T17:06:42.310Z,19.80
2019-02-23T17:09:11.590Z,19.90
2019-02-23T17:11:40.824Z,20.60
2019-02-23T17:14:10.110Z,20.30
2019-02-23T17:16:39.246Z,20.50
2019-02-23T17:19:08.491Z,20.20
2019-02-23T17:21:37.669Z,22.10
2019-02-23T17:24:07.007Z,21.70
2019-02-23T17:26:36.928Z,22.40
2019-02-23T17:29:06.305Z,22.10
2019-02-23T17:31:35.532Z,21.30
2019-02-23T17:34:04.728Z,21.00
2019-02-23T17:36:33.936Z,20.20
2019-02-23T17:39:03.199Z,19.70
2019-02-23T17:41:32.444Z,19.70
2019-02-23T17:44:01.727Z,20.70
2019-02-23T17:46:30.888Z,19.40
2019-02-23T17:49:00.458Z,18.00
2019-02-23T17:51:29.612Z,19.30
2019-02-23T17:53:58.757Z,19.20
2019-02-23T17:56:28.012Z,19.70
2019-02-23T17:58:57.280Z,18.50
2019-02-23T18:01:26.605Z,18.60
2019-02-23T18:03:55.763Z,18.80
2019-02-23T18:06:25.420Z,18.70
2019-02-23T18:08:54.749Z,18.80
2019-02-23T18:11:24.134Z,19.20
2019-02-23T18:13:53.348Z,18.60
2019-02-23T18:16:22.626Z,18.30
2019-02-23T18:18:51.908Z,18.60
2019-02-23T18:21:21.748Z,18.80
2019-02-23T18:23:50.904Z,18.60
2019-02-23T18:26:21.295Z,19.00
2019-02-23T18:28:50.792Z,19.90
2019-02-23T18:31:20.313Z,19.50
2019-02-23T18:33:49.568Z,19.00
2019-02-23T18:36:18.980Z,19.70
2019-02-23T18:38:48.233Z,19.30
2019-02-23T18:41:17.600Z,19.40
2019-02-23T18:43:47.073Z,19.40
2019-02-23T18:46:16.296Z,20.00
2019-02-23T18:48:45.572Z,20.40
2019-02-23T18:51:14.729Z,20.30
2019-02-23T18:53:44.041Z,19.50
2019-02-23T18:56:13.344Z,19.00
2019-02-23T18:58:42.539Z,19.40
2019-02-23T19:01:11.909Z,20.00
2019-02-23T19:03:41.273Z,20.40
2019-02-23T19:06:10.447Z,20.20
2019-02-23T19:08:39.741Z,19.70
2019-02-23T19:11:09.039Z,19.70
2019-02-23T19:13:38.240Z,20.40
2019-02-23T19:16:07.386Z,20.30
2019-02-23T19:18:36.628Z,19.80
2019-02-23T19:21:05.947Z,20.40
2019-02-23T19:23:35.216Z,20.00
2019-02-23T19:26:04.556Z,19.90
2019-02-23T19:28:33.845Z,20.20
2019-02-23T19:31:03.113Z,20.80
2019-02-23T19:33:32.285Z,21.40
2019-02-23T19:36:01.583Z,21.90
2019-02-23T19:38:30.732Z,21.00
2019-02-23T19:41:00.001Z,21.80
2019-02-23T19:43:29.229Z,21.30
2019-02-23T19:45:58.488Z,22.50
2019-02-23T19:48:27.783Z,22.00
2019-02-23T19:51:00.960Z,21.70
2019-02-23T19:53:30.674Z,21.40
2019-02-23T19:55:59.816Z,21.30
2019-02-23T19:58:29.187Z,21.30
2019-02-23T20:00:58.338Z,21.20
2019-02-23T20:03:27.616Z,21.40
2019-02-23T20:05:56.765Z,21.30
2019-02-23T20:08:26.558Z,21.50
2019-02-23T20:10:55.766Z,21.60
2019-02-23T20:13:25.076Z,22.10
2019-02-23T20:15:54.327Z,22.10
2019-02-23T20:18:23.586Z,21.90
2019-02-23T20:20:52.852Z,21.50
2019-02-23T20:23:22.109Z,21.80
2019-02-23T20:25:51.274Z,22.30
2019-02-23T20:28:20.425Z,22.30
2019-02-23T20:30:49.604Z,22.40
2019-02-23T20:33:19.116Z,21.70
2019-02-23T20:35:48.590Z,21.80
2019-02-23T20:38:17.807Z,21.40
2019-02-23T20:40:47.032Z,21.50
2019-02-23T20:43:16.263Z,22.50
2019-02-23T20:45:45.500Z,23.40
2019-02-23T20:48:14.803Z,24.70
2019-02-23T20:50:44.108Z,25.50
2019-02-23T20:53:13.416Z,25.50
2019-02-23T20:55:42.706Z,25.30
2019-02-23T20:58:12.046Z,26.30
2019-02-23T21:00:41.348Z,26.40
2019-02-23T21:03:10.745Z,27.10
2019-02-23T21:05:39.898Z,27.10
2019-02-23T21:08:09.124Z,27.10
2019-02-23T21:10:38.429Z,26.90
2019-02-23T21:13:07.672Z,27.00
2019-02-23T21:15:36.934Z,26.70
2019-02-23T21:18:06.099Z,26.40
2019-02-23T21:20:35.310Z,26.60
2019-02-23T21:23:04.455Z,26.30
2019-02-23T21:25:33.826Z,26.40
2019-02-23T21:28:03.179Z,26.10
2019-02-23T21:30:32.424Z,24.50
2019-02-23T21:33:01.602Z,26.20
2019-02-23T21:35:30.919Z,25.30
2019-02-23T21:38:00.123Z,24.10
2019-02-23T21:40:29.312Z,23.70
2019-02-23T21:42:58.578Z,23.50
2019-02-23T21:45:27.840Z,25.50
2019-02-23T21:47:57.209Z,25.20
2019-02-23T21:50:45.574Z,25.30
2019-02-23T21:53:14.752Z,23.40
2019-02-23T21:55:44.088Z,24.90
2019-02-23T21:58:13.317Z,24.90
2019-02-23T22:00:42.525Z,23.30
2019-02-23T22:03:11.749Z,23.90
2019-02-23T22:05:40.884Z,23.90
2019-02-23T22:08:10.043Z,24.00
2019-02-23T22:10:39.253Z,21.80
2019-02-23T22:13:08.481Z,20.90
2019-02-23T22:15:37.704Z,21.30
2019-02-23T22:18:06.893Z,19.60
2019-02-23T22:20:36.222Z,18.10
2019-02-23T22:23:05.408Z,16.90
2019-02-23T22:25:34.671Z,16.60
2019-02-23T22:28:03.865Z,18.00
2019-02-23T22:30:33.086Z,18.50
2019-02-23T22:33:02.481Z,18.40
2019-02-23T22:35:31.649Z,17.70
2019-02-23T22:38:01.017Z,16.70
2019-02-23T22:40:30.152Z,16.50
2019-02-23T22:42:59.437Z,16.20
2019-02-23T22:45:28.693Z,15.40
2019-02-23T22:47:57.857Z,15.40
2019-02-23T22:50:27.113Z,17.20
2019-02-23T22:52:56.267Z,17.50
2019-02-23T22:55:25.678Z,16.30
2019-02-23T22:57:55.017Z,15.00
2019-02-23T23:00:28.151Z,15.60
2019-02-23T23:02:57.416Z,14.70
2019-02-23T23:05:26.613Z,14.60
2019-02-23T23:07:55.770Z,14.50
2019-02-23T23:10:25.176Z,14.40
2019-02-23T23:12:54.807Z,15.60
2019-02-23T23:15:24.226Z,14.90
2019-02-23T23:17:53.360Z,14.90
2019-02-23T23:20:22.669Z,14.90
2019-02-23T23:22:51.849Z,15.30
2019-02-23T23:25:21.055Z,15.70
2019-02-23T23:27:50.263Z,15.60
2019-02-23T23:30:19.593Z,15.00
2019-02-23T23:32:48.786Z,14.80
2019-02-23T23:35:18.068Z,15.30
2019-02-23T23:37:47.214Z,15.40
2019-02-23T23:40:16.368Z,15.80
2019-02-23T23:42:45.500Z,15.80
2019-02-23T23:45:14.729Z,17.90
2019-02-23T23:47:43.886Z,18.50
2019-02-23T23:50:13.051Z,19.20
2019-02-23T23:52:42.288Z,19.00
2019-02-23T23:55:11.658Z,20.30
2019-02-23T23:57:40.900Z,21.40
